Korkino, Russia
Current Conditions -  °F | °C
As of 9:00 PM on Saturday 25 Oct 2014 (Local Time) from USCC Reporting Station
Snow Showers Snow Showers  
Wind Chill: -6°   Ceiling: 1300
Heat Index:   Visibility: 1.5mi
Dew Point:   Wind: 11mph
Humidity: 79%   Direction: 340°NNW
Pressure: 30"   Gusts: NA
Location:  54.89°N, 61.4°E
Report Text: USCC 251500Z 34005MPS 2400 -SHSN VV013 M13/M16 Q1016 27490245TEMPO 0300 +SHSN VV004 RMK QFE742
Loading
Personal Weather Stations






























Interactive Weather Map
Tropical Storm Tracking
New forecast layout! Learn more

10-Day Weather Forecast

Advertisements
Track Severe Weather on mobile